Portada
METAR-TAF:

METAR-TAF

Aeroports :

Nanquín, Xina

latitud: 32-00N, longitud: 118-48E, altitud: 12 m

Observació

L'informe es va fer fa 1 hora i 6 minuts, a les 00:00 UTC
Vent 6 kt del Est
Temperatura 21°C
Humitat 83%
Pressió 1014 hPa
Visibilitat: 6000 m

METAR: ZSNJ 010000Z 09003MPS 6000 NSC 21/18 Q1014 NOSIG

Hora: 09:06 (01:06 UTC)

Pronòstic

L'informe es va fer fa 4 hores i 4 minuts, a les 21:02 UTC
Pronòstic vàlid del 01 a les 00 UTC al 01 a les 24 UTC
Vent 6 kt del Est
Visibilitat: 3000 m
Cel ennuvolat a una alçada de 3000 ft
boirina

TAF: ZSNJ 302102Z 0100/0124 09003MPS 3000 BR BKN030 TX27/0106Z TN19/0122Z

Observacions i pronòstics meteorològics de més de 4000 aeroports (METAR i TAF).

Les estacions disponibles són els punts grocs i vermells al mapa.

Posi el ratolí al punt desitjat per veure el nom de l'estació.

Feu clic per veure les observacions i els pronòstics meteorològics.

Per canviar el mapa: feu clic els botons verds amb una creu de color negre per apropar; al botó verd amb un guió per allunyar la imatge; o en les fletxes verdes per a mapes adjacents.


METAR-TAF: